Time,TemperatureF,DewpointF,PressureIn,WindDirection,WindDirectionDegrees,WindSpeedMPH,WindSpeedGustMPH,Humidity,HourlyPrecipIn,Conditions,Clouds,dailyrainin,SoftwareType,DateUTC
2013-06-30 00:22:00,62.0,59.0,29.99,North,0,1.0,1.0,91,0.00,,,0.00,,2013-06-30 07:22:00,
2013-06-30 00:33:00,62.0,59.0,29.99,North,0,0.0,3.0,91,0.00,,,0.00,,2013-06-30 07:33:00,
2013-06-30 00:44:00,62.0,59.0,29.98,North,0,0.0,0.0,91,0.00,,,0.00,,2013-06-30 07:44:00,
2013-06-30 00:53:00,62.0,59.0,29.98,North,0,0.0,0.0,91,0.00,,,0.00,,2013-06-30 07:53:00,
2013-06-30 01:02:00,62.0,59.0,29.98,North,0,0.0,0.0,91,0.00,,,0.00,,2013-06-30 08:02:00,
2013-06-30 01:11:00,62.0,60.0,29.98,North,0,0.0,0.0,92,0.00,,,0.00,,2013-06-30 08:11:00,
2013-06-30 01:22:00,62.0,60.0,29.98,North,0,0.0,0.0,92,0.00,,,0.00,,2013-06-30 08:22:00,
2013-06-30 01:33:00,61.0,59.0,29.97,North,0,0.0,0.0,92,0.00,,,0.00,,2013-06-30 08:33:00,
2013-06-30 01:42:00,61.0,59.0,29.97,North,0,0.0,0.0,93,0.00,,,0.00,,2013-06-30 08:42:00,
2013-06-30 01:53:00,61.0,59.0,29.97,North,0,0.0,0.0,93,0.00,,,0.00,,2013-06-30 08:53:00,
2013-06-30 02:01:00,61.0,59.0,29.97,North,0,0.0,0.0,93,0.00,,,0.00,,2013-06-30 09:01:00,
2013-06-30 02:11:00,61.0,59.0,29.97,North,0,0.0,0.0,93,0.00,,,0.00,,2013-06-30 09:11:00,
2013-06-30 02:23:00,61.0,59.0,29.97,North,0,0.0,0.0,93,0.00,,,0.00,,2013-06-30 09:23:00,
2013-06-30 02:33:00,61.0,59.0,29.97,North,0,0.0,0.0,93,0.00,,,0.00,,2013-06-30 09:33:00,
2013-06-30 02:43:00,61.0,59.0,29.96,North,0,0.0,0.0,94,0.00,,,0.00,,2013-06-30 09:43:00,
2013-06-30 02:52:00,61.0,59.0,29.96,ESE,114,0.0,4.0,94,0.00,,,0.00,,2013-06-30 09:52:00,
2013-06-30 03:02:00,60.0,58.0,29.96,North,0,0.0,4.0,94,0.00,,,0.00,,2013-06-30 10:02:00,
2013-06-30 03:11:00,60.0,59.0,29.97,North,0,0.0,0.0,95,0.00,,,0.00,,2013-06-30 10:11:00,
2013-06-30 03:22:00,60.0,59.0,29.96,SE,140,0.0,4.0,95,0.00,,,0.00,,2013-06-30 10:22:00,
2013-06-30 03:33:00,60.0,59.0,29.96,North,0,0.0,4.0,95,0.00,,,0.00,,2013-06-30 10:33:00,
2013-06-30 03:42:00,60.0,59.0,29.96,North,0,0.0,0.0,95,0.00,,,0.00,,2013-06-30 10:42:00,
2013-06-30 03:53:00,59.0,58.0,29.96,North,0,0.0,0.0,95,0.00,,,0.00,,2013-06-30 10:53:00,
2013-06-30 04:02:00,59.0,58.0,29.96,North,0,0.0,0.0,95,0.00,,,0.00,,2013-06-30 11:02:00,
2013-06-30 04:11:00,59.0,58.0,29.96,North,0,0.0,0.0,95,0.00,,,0.00,,2013-06-30 11:11:00,
2013-06-30 04:22:00,59.0,58.0,29.96,North,0,0.0,0.0,95,0.00,,,0.00,,2013-06-30 11:22:00,
2013-06-30 04:33:00,59.0,58.0,29.96,North,0,0.0,0.0,95,0.00,,,0.00,,2013-06-30 11:33:00,
2013-06-30 04:43:00,60.0,59.0,29.96,North,0,0.0,0.0,96,0.00,,,0.00,,2013-06-30 11:43:00,
2013-06-30 04:53:00,59.0,58.0,29.95,ESE,110,2.0,4.0,96,0.00,,,0.00,,2013-06-30 11:53:00,
2013-06-30 05:01:00,59.0,58.0,29.95,ESE,103,0.0,4.0,96,0.00,,,0.00,,2013-06-30 12:01:00,
2013-06-30 05:11:00,58.0,57.0,29.96,North,0,0.0,4.0,96,0.00,,,0.00,,2013-06-30 12:11:00,
2013-06-30 05:24:00,59.0,58.0,29.96,North,0,0.0,0.0,96,0.00,,,0.00,,2013-06-30 12:24:00,
2013-06-30 05:33:00,59.0,58.0,29.96,North,0,0.0,0.0,96,0.00,,,0.00,,2013-06-30 12:33:00,
2013-06-30 05:43:00,59.0,58.0,29.96,North,0,0.0,0.0,96,0.00,,,0.00,,2013-06-30 12:43:00,
2013-06-30 05:52:00,59.0,58.0,29.96,North,0,0.0,0.0,96,0.00,,,0.00,,2013-06-30 12:52:00,
2013-06-30 06:02:00,59.0,58.0,29.96,North,0,0.0,0.0,96,0.00,,,0.00,,2013-06-30 13:02:00,
2013-06-30 06:12:00,59.0,58.0,29.96,East,93,1.0,5.0,96,0.00,,,0.00,,2013-06-30 13:12:00,
2013-06-30 06:22:00,59.0,58.0,29.97,North,0,0.0,5.0,96,0.00,,,0.00,,2013-06-30 13:22:00,
2013-06-30 06:33:00,59.0,58.0,29.97,North,0,0.0,0.0,96,0.00,,,0.00,,2013-06-30 13:33:00,
2013-06-30 06:43:00,59.0,58.0,29.97,North,0,0.0,0.0,96,0.00,,,0.00,,2013-06-30 13:43:00,
2013-06-30 06:53:00,58.0,57.0,29.97,North,0,0.0,0.0,96,0.00,,,0.00,,2013-06-30 13:53:00,
2013-06-30 07:02:00,59.0,58.0,29.97,North,0,0.0,0.0,96,0.00,,,0.00,,2013-06-30 14:02:00,
2013-06-30 07:11:00,59.0,58.0,29.97,North,0,0.0,0.0,97,0.00,,,0.00,,2013-06-30 14:11:00,
2013-06-30 07:33:00,60.0,59.0,29.97,North,0,0.0,0.0,96,0.00,,,0.00,,2013-06-30 14:33:00,
2013-06-30 07:44:00,60.0,59.0,29.97,North,0,0.0,0.0,96,0.00,,,0.00,,2013-06-30 14:44:00,
2013-06-30 07:52:00,60.0,59.0,29.97,North,0,0.0,0.0,96,0.00,,,0.00,,2013-06-30 14:52:00,
2013-06-30 08:02:00,60.0,59.0,29.97,North,0,0.0,0.0,96,0.00,,,0.00,,2013-06-30 15:02:00,
2013-06-30 08:12:00,59.0,58.0,29.97,North,0,0.0,0.0,96,0.00,,,0.00,,2013-06-30 15:12:00,
2013-06-30 08:22:00,59.0,58.0,29.97,North,0,0.0,0.0,96,0.00,,,0.00,,2013-06-30 15:22:00,
2013-06-30 08:34:00,61.0,60.0,29.97,North,0,0.0,0.0,96,0.00,,,0.00,,2013-06-30 15:34:00,
2013-06-30 08:44:00,61.0,60.0,29.97,North,0,0.0,0.0,96,0.00,,,0.00,,2013-06-30 15:44:00,
2013-06-30 08:52:00,62.0,61.0,29.98,North,0,0.0,0.0,96,0.00,,,0.00,,2013-06-30 15:52:00,
2013-06-30 09:01:00,63.0,62.0,29.98,WNW,296,4.0,5.0,96,0.00,,,0.00,,2013-06-30 16:01:00,
2013-06-30 09:11:00,63.0,62.0,29.98,NW,305,2.0,5.0,95,0.00,,,0.00,,2013-06-30 16:11:00,
2013-06-30 09:21:00,65.0,63.0,29.98,WNW,301,2.0,5.0,94,0.00,,,0.00,,2013-06-30 16:21:00,
2013-06-30 09:34:00,65.0,63.0,29.98,NW,319,1.0,6.0,93,0.00,,,0.00,,2013-06-30 16:34:00,
2013-06-30 09:43:00,67.0,64.0,29.98,NW,308,4.0,6.0,91,0.00,,,0.00,,2013-06-30 16:43:00,
2013-06-30 09:53:00,67.0,64.0,29.98,WNW,296,4.0,7.0,89,0.00,,,0.00,,2013-06-30 16:53:00,
2013-06-30 10:01:00,67.0,63.0,29.98,NW,312,4.0,7.0,88,0.00,,,0.00,,2013-06-30 17:01:00,
2013-06-30 10:11:00,68.0,64.0,29.98,NW,323,4.0,6.0,88,0.00,,,0.00,,2013-06-30 17:11:00,
2013-06-30 10:23:00,68.0,64.0,29.98,NW,323,4.0,6.0,88,0.00,,,0.00,,2013-06-30 17:23:00,
2013-06-30 10:33:00,68.0,64.0,29.98,WNW,292,5.0,8.0,86,0.00,,,0.00,,2013-06-30 17:33:00,
2013-06-30 10:43:00,69.0,64.0,29.98,NW,308,5.0,8.0,84,0.00,,,0.00,,2013-06-30 17:43:00,
2013-06-30 10:52:00,69.0,64.0,29.98,WNW,287,4.0,8.0,83,0.00,,,0.00,,2013-06-30 17:52:00,
2013-06-30 11:01:00,69.0,64.0,29.98,NW,305,6.0,8.0,83,0.00,,,0.00,,2013-06-30 18:01:00,
2013-06-30 11:12:00,70.0,65.0,29.98,NW,326,5.0,8.0,83,0.00,,,0.00,,2013-06-30 18:12:00,
2013-06-30 11:22:00,70.0,65.0,29.98,NW,317,4.0,8.0,83,0.00,,,0.00,,2013-06-30 18:22:00,
2013-06-30 11:33:00,70.0,64.0,29.98,NNW,333,3.0,8.0,82,0.00,,,0.00,,2013-06-30 18:33:00,
2013-06-30 11:43:00,70.0,64.0,29.98,NNW,340,6.0,9.0,82,0.00,,,0.00,,2013-06-30 18:43:00,
2013-06-30 11:53:00,70.0,64.0,29.98,NNW,340,6.0,9.0,82,0.00,,,0.00,,2013-06-30 18:53:00,
2013-06-30 12:01:00,70.0,64.0,29.98,NW,305,6.0,8.0,82,0.00,,,0.00,,2013-06-30 19:01:00,
2013-06-30 12:11:00,70.0,64.0,29.98,WNW,298,6.0,9.0,81,0.00,,,0.00,,2013-06-30 19:11:00,
2013-06-30 12:22:00,70.0,64.0,29.97,NW,309,7.0,9.0,81,0.00,,,0.00,,2013-06-30 19:22:00,
2013-06-30 12:33:00,70.0,64.0,29.97,WNW,292,6.0,10.0,82,0.00,,,0.00,,2013-06-30 19:33:00,
2013-06-30 12:43:00,69.0,64.0,29.97,NNW,333,7.0,10.0,83,0.00,,,0.00,,2013-06-30 19:43:00,
2013-06-30 12:53:00,69.0,64.0,29.97,NW,310,9.0,11.0,83,0.00,,,0.00,,2013-06-30 19:53:00,
2013-06-30 13:01:00,69.0,64.0,29.97,NW,316,7.0,12.0,83,0.00,,,0.00,,2013-06-30 20:01:00,
2013-06-30 13:11:00,69.0,64.0,29.97,NW,324,8.0,11.0,83,0.00,,,0.00,,2013-06-30 20:11:00,
2013-06-30 13:21:00,70.0,64.0,29.97,NW,308,8.0,12.0,82,0.00,,,0.00,,2013-06-30 20:21:00,
2013-06-30 13:34:00,70.0,64.0,29.97,WNW,289,8.0,12.0,81,0.00,,,0.00,,2013-06-30 20:34:00,
2013-06-30 13:42:00,70.0,64.0,29.97,NW,308,8.0,11.0,81,0.00,,,0.00,,2013-06-30 20:42:00,
2013-06-30 13:52:00,71.0,64.0,29.97,NW,310,9.0,11.0,79,0.00,,,0.00,,2013-06-30 20:52:00,
2013-06-30 14:01:00,71.0,65.0,29.97,WNW,299,10.0,12.0,81,0.00,,,0.00,,2013-06-30 21:01:00,
2013-06-30 14:11:00,72.0,65.0,29.97,NW,320,9.0,13.0,79,0.00,,,0.00,,2013-06-30 21:11:00,
2013-06-30 14:22:00,70.0,63.0,29.97,NW,315,8.0,13.0,79,0.00,,,0.00,,2013-06-30 21:22:00,
2013-06-30 14:33:00,71.0,64.0,29.97,NNW,330,8.0,15.0,79,0.00,,,0.00,,2013-06-30 21:33:00,
2013-06-30 14:42:00,71.0,64.0,29.97,NW,317,9.0,15.0,79,0.00,,,0.00,,2013-06-30 21:42:00,
2013-06-30 14:53:00,71.0,64.0,29.97,NNW,329,9.0,14.0,79,0.00,,,0.00,,2013-06-30 21:53:00,
2013-06-30 15:01:00,70.0,63.0,29.98,NW,305,10.0,14.0,78,0.00,,,0.00,,2013-06-30 22:01:00,
2013-06-30 15:11:00,70.0,63.0,29.98,NW,320,10.0,16.0,78,0.00,,,0.00,,2013-06-30 22:11:00,
2013-06-30 15:22:00,69.0,62.0,29.98,NW,319,9.0,16.0,78,0.00,,,0.00,,2013-06-30 22:22:00,
2013-06-30 15:34:00,70.0,63.0,29.98,NNW,331,10.0,16.0,78,0.00,,,0.00,,2013-06-30 22:34:00,
2013-06-30 15:43:00,70.0,62.0,29.98,NNW,327,12.0,15.0,77,0.00,,,0.00,,2013-06-30 22:43:00,
2013-06-30 15:52:00,70.0,62.0,29.98,NW,316,12.0,16.0,77,0.00,,,0.00,,2013-06-30 22:52:00,
2013-06-30 16:01:00,70.0,62.0,29.98,NNW,333,10.0,16.0,77,0.00,,,0.00,,2013-06-30 23:01:00,
2013-06-30 16:11:00,69.0,61.0,29.98,NW,316,10.0,16.0,77,0.00,,,0.00,,2013-06-30 23:11:00,
2013-06-30 16:22:00,69.0,62.0,29.98,NW,324,11.0,16.0,78,0.00,,,0.00,,2013-06-30 23:22:00,
2013-06-30 16:33:00,70.0,63.0,29.98,NW,320,11.0,17.0,78,0.00,,,0.00,,2013-06-30 23:33:00,
2013-06-30 16:43:00,70.0,63.0,29.97,NW,309,10.0,17.0,78,0.00,,,0.00,,2013-06-30 23:43:00,
2013-06-30 16:53:00,69.0,62.0,29.97,NW,323,9.0,15.0,78,0.00,,,0.00,,2013-06-30 23:53:00,
2013-06-30 17:01:00,69.0,62.0,29.97,WNW,303,11.0,14.0,78,0.00,,,0.00,,2013-07-01 00:01:00,
2013-06-30 17:11:00,69.0,62.0,29.97,NNW,341,9.0,15.0,79,0.00,,,0.00,,2013-07-01 00:11:00,
2013-06-30 17:22:00,69.0,62.0,29.97,NW,315,9.0,15.0,79,0.00,,,0.00,,2013-07-01 00:22:00,
2013-06-30 17:33:00,69.0,63.0,29.97,NW,320,11.0,15.0,80,0.00,,,0.00,,2013-07-01 00:33:00,
2013-06-30 17:42:00,68.0,62.0,29.97,NW,320,11.0,15.0,81,0.00,,,0.00,,2013-07-01 00:42:00,
2013-06-30 17:52:00,68.0,62.0,29.96,NW,305,10.0,16.0,81,0.00,,,0.00,,2013-07-01 00:52:00,
2013-06-30 18:01:00,68.0,62.0,29.96,WNW,302,10.0,17.0,81,0.00,,,0.00,,2013-07-01 01:01:00,
2013-06-30 18:11:00,68.0,62.0,29.96,WNW,302,10.0,17.0,81,0.00,,,0.00,,2013-07-01 01:11:00,
2013-06-30 18:22:00,67.0,61.0,29.96,NW,324,10.0,17.0,82,0.00,,,0.00,,2013-07-01 01:22:00,
2013-06-30 18:33:00,68.0,62.0,29.95,WNW,302,10.0,14.0,82,0.00,,,0.00,,2013-07-01 01:33:00,
2013-06-30 18:42:00,67.0,61.0,29.96,NW,323,11.0,16.0,82,0.00,,,0.00,,2013-07-01 01:42:00,
2013-06-30 18:52:00,67.0,62.0,29.96,NW,315,10.0,15.0,83,0.00,,,0.00,,2013-07-01 01:52:00,
2013-06-30 19:02:00,67.0,62.0,29.96,NNW,330,8.0,14.0,83,0.00,,,0.00,,2013-07-01 02:02:00,
2013-06-30 19:11:00,67.0,62.0,29.96,NNW,329,9.0,14.0,84,0.00,,,0.00,,2013-07-01 02:11:00,
2013-06-30 19:22:00,66.0,61.0,29.96,North,1,8.0,14.0,84,0.00,,,0.00,,2013-07-01 02:22:00,
2013-06-30 19:33:00,66.0,61.0,29.96,NNW,347,8.0,14.0,85,0.00,,,0.00,,2013-07-01 02:33:00,
2013-06-30 19:43:00,65.0,60.0,29.96,North,350,7.0,12.0,85,0.00,,,0.00,,2013-07-01 02:43:00,
2013-06-30 19:53:00,65.0,60.0,29.94,North,2,8.0,13.0,85,0.00,,,0.00,,2013-07-01 02:53:00,
2013-06-30 20:01:00,65.0,61.0,29.94,NNW,338,9.0,11.0,86,0.00,,,0.00,,2013-07-01 03:01:00,
2013-06-30 20:11:00,65.0,61.0,29.95,NW,313,8.0,13.0,86,0.00,,,0.00,,2013-07-01 03:11:00,
2013-06-30 20:23:00,65.0,61.0,29.95,NW,313,8.0,13.0,86,0.00,,,0.00,,2013-07-01 03:23:00,
2013-06-30 20:33:00,64.0,60.0,29.92,NW,324,8.0,13.0,87,0.00,,,0.00,,2013-07-01 03:33:00,
2013-06-30 20:43:00,63.0,59.0,29.91,NNW,334,8.0,12.0,87,0.00,,,0.00,,2013-07-01 03:43:00,
2013-06-30 20:52:00,63.0,59.0,29.91,NNW,331,9.0,13.0,88,0.00,,,0.00,,2013-07-01 03:52:00,
2013-06-30 21:01:00,63.0,59.0,29.92,NNW,334,8.0,11.0,88,0.00,,,0.00,,2013-07-01 04:01:00,
2013-06-30 21:11:00,63.0,60.0,29.93,NNW,338,5.0,11.0,89,0.00,,,0.00,,2013-07-01 04:11:00,
2013-06-30 21:22:00,63.0,60.0,29.93,NNW,338,5.0,11.0,89,0.00,,,0.00,,2013-07-01 04:22:00,
2013-06-30 21:32:00,63.0,60.0,29.93,NNW,338,5.0,11.0,89,0.00,,,0.00,,2013-07-01 04:32:00,
2013-06-30 21:42:00,63.0,60.0,29.93,NNW,338,5.0,11.0,89,0.00,,,0.00,,2013-07-01 04:42:00,
2013-06-30 21:52:00,63.0,60.0,29.95,North,0,0.0,3.0,90,0.00,,,0.00,,2013-07-01 04:52:00,
2013-06-30 22:01:00,62.0,59.0,29.95,North,357,4.0,5.0,91,0.00,,,0.00,,2013-07-01 05:01:00,
2013-06-30 22:11:00,62.0,60.0,29.95,NNW,343,6.0,9.0,92,0.00,,,0.00,,2013-07-01 05:11:00,
2013-06-30 22:22:00,62.0,60.0,29.95,NNW,334,3.0,9.0,92,0.00,,,0.00,,2013-07-01 05:22:00,
2013-06-30 22:32:00,62.0,60.0,29.96,North,357,2.0,8.0,93,0.00,,,0.00,,2013-07-01 05:32:00,
2013-06-30 22:42:00,61.0,59.0,29.96,NNW,338,8.0,11.0,93,0.00,,,0.00,,2013-07-01 05:42:00,
2013-06-30 22:52:00,62.0,60.0,29.96,NNW,334,8.0,11.0,93,0.00,,,0.00,,2013-07-01 05:52:00,
2013-06-30 23:02:00,61.0,59.0,29.96,NNW,343,8.0,11.0,94,0.00,,,0.00,,2013-07-01 06:02:00,
2013-06-30 23:12:00,63.0,61.0,29.96,NNW,345,7.0,12.0,94,0.00,,,0.00,,2013-07-01 06:12:00,
2013-06-30 23:23:00,62.0,61.0,29.96,North,352,7.0,12.0,95,0.00,,,0.00,,2013-07-01 06:23:00,
2013-06-30 23:33:00,61.0,60.0,29.96,North,357,7.0,11.0,95,0.00,,,0.00,,2013-07-01 06:33:00,
2013-06-30 23:43:00,61.0,60.0,29.97,North,9,7.0,12.0,95,0.00,,,0.00,,2013-07-01 06:43:00,
2013-06-30 23:53:00,62.0,61.0,29.97,North,8,7.0,12.0,95,0.00,,,0.00,,2013-07-01 06:53:00,